Aviation Digital Data Service (ADDS)

Output produced by METARs form (1908 UTC 25 June 2017)
found at http://www.aviationweather.gov/adds/metars/
 
EGYP 251850Z 30011KT 9999 BKN045 01/01 Q1024 BLU NOSIG
TAF EGYP 251635Z 2518/2612 29015KT 9999 FEW020 SCT040 
     BECMG 2518/2521 32010KT 
     PROB40 
     TEMPO 2604/2608 SCT020 
     TEMPO 2608/2612 SCT010 
     PROB30 
     TEMPO 2608/2612 2000 SHSN SCT005